Weather at Buochs Airport

Public forecast

Using degrees Celsius for public forecast. Weather courtesy of forecast.io.

Current aviation weather report (METAR) for Buochs Airport

Retrieved 2021/05/16 04:50 UTC (12 minutes ago):

LSZC 160450Z AUTO VRB01KT 9999 -DZ BKN055 BKN065 08/07 Q1009

Closest aviation forecast (TAF) to Buochs Airport

Forecast is more than 12 hours old.

Closest forecast is Alpnach Air Base, 5.0 nm (9.2 km) WSW. Retrieved 2021/05/15 17:00 UTC (12 hours ago):

TAF LSMA 151625Z 1517/1623 VRB02KT 9999 -RA BKN035 OVC045 TEMPO 1517/1603 RA PROB30 TEMPO 1518/1524 4000 BKN013 TEMPO 1603/1623 SHRA SCT035TCU PROB30 TEMPO 1612/1623 24015G25KT TSGS SCT030CB